createdAt,value
2018-12-06T00:00:00.479Z,8.10
2018-12-06T00:02:28.030Z,5.10
2018-12-06T00:04:55.580Z,6.20
2018-12-06T00:07:23.184Z,9.67
2018-12-06T00:09:50.731Z,5.03
2018-12-06T00:12:18.292Z,7.40
2018-12-06T00:14:45.839Z,10.20
2018-12-06T00:17:13.406Z,8.33
2018-12-06T00:19:40.943Z,6.80
2018-12-06T00:22:08.504Z,5.83
2018-12-06T00:24:36.094Z,10.00
2018-12-06T00:27:03.905Z,5.00
2018-12-06T00:29:31.450Z,7.97
2018-12-06T00:31:59.008Z,10.03
2018-12-06T00:34:26.556Z,5.83
2018-12-06T00:36:54.119Z,7.17
2018-12-06T00:39:21.660Z,8.80
2018-12-06T00:41:49.220Z,8.20
2018-12-06T00:44:16.765Z,8.03
2018-12-06T00:46:44.333Z,6.90
2018-12-06T00:49:11.881Z,6.80
2018-12-06T00:51:39.445Z,7.30
2018-12-06T00:54:06.997Z,8.77
2018-12-06T00:56:34.570Z,8.53
2018-12-06T00:59:02.209Z,8.73
2018-12-06T01:01:29.863Z,9.67
2018-12-06T01:03:57.411Z,11.53
2018-12-06T01:06:25.015Z,16.37
2018-12-06T01:08:52.559Z,16.00
2018-12-06T01:11:20.572Z,11.43
2018-12-06T01:13:48.154Z,9.60
2018-12-06T01:16:15.723Z,7.17
2018-12-06T01:18:43.268Z,9.83
2018-12-06T01:21:10.832Z,8.93
2018-12-06T01:23:38.375Z,9.80
2018-12-06T01:26:05.934Z,6.90
2018-12-06T01:28:33.475Z,7.80
2018-12-06T01:31:01.041Z,8.53
2018-12-06T01:33:28.595Z,9.57
2018-12-06T01:35:56.164Z,11.83
2018-12-06T01:38:23.853Z,8.13
2018-12-06T01:40:51.459Z,7.30
2018-12-06T01:43:19.005Z,6.73
2018-12-06T01:45:46.575Z,8.00
2018-12-06T01:48:14.366Z,9.40
2018-12-06T01:50:41.919Z,8.90
2018-12-06T01:53:09.484Z,9.30
2018-12-06T01:55:37.028Z,6.23
2018-12-06T01:58:04.629Z,9.00
2018-12-06T02:00:32.171Z,8.97
2018-12-06T02:02:59.733Z,9.43
2018-12-06T02:05:27.272Z,9.67
2018-12-06T02:07:54.835Z,9.67
2018-12-06T02:10:22.375Z,9.27
2018-12-06T02:12:49.945Z,10.83
2018-12-06T02:15:17.492Z,10.23
2018-12-06T02:17:45.058Z,8.67
2018-12-06T02:20:12.601Z,7.77
2018-12-06T02:22:40.204Z,9.50
2018-12-06T02:25:07.792Z,9.10
2018-12-06T02:27:35.363Z,10.37
2018-12-06T02:30:03.505Z,7.77
2018-12-06T02:32:31.065Z,6.97
2018-12-06T02:34:58.609Z,10.50
2018-12-06T02:37:26.226Z,12.10
2018-12-06T02:39:53.767Z,6.20
2018-12-06T02:42:21.379Z,9.30
2018-12-06T02:44:48.941Z,9.40
2018-12-06T02:47:16.619Z,10.10
2018-12-06T02:49:44.167Z,9.47
2018-12-06T02:52:11.734Z,8.30
2018-12-06T02:54:39.279Z,11.53
2018-12-06T02:57:08.775Z,7.50
2018-12-06T02:59:36.315Z,8.80
2018-12-06T03:02:03.929Z,9.30
2018-12-06T03:04:31.468Z,8.17
2018-12-06T03:06:59.069Z,7.50
2018-12-06T03:09:26.615Z,13.20
2018-12-06T03:11:54.180Z,11.07
2018-12-06T03:14:21.733Z,7.83
2018-12-06T03:16:49.303Z,6.63
2018-12-06T03:19:16.987Z,9.33
2018-12-06T03:21:44.545Z,9.00
2018-12-06T03:24:12.132Z,8.17
2018-12-06T03:26:39.736Z,7.93
2018-12-06T03:29:07.277Z,6.13
2018-12-06T03:31:34.875Z,8.97
2018-12-06T03:34:02.440Z,6.93
2018-12-06T03:36:29.980Z,8.03
2018-12-06T03:38:57.567Z,8.17
2018-12-06T03:41:25.107Z,8.33
2018-12-06T03:43:52.678Z,7.87
2018-12-06T03:46:20.215Z,8.00
2018-12-06T03:48:47.772Z,9.07
2018-12-06T03:51:15.320Z,8.17
2018-12-06T03:53:42.896Z,11.17
2018-12-06T03:56:10.443Z,9.83
2018-12-06T03:58:38.003Z,9.50
2018-12-06T04:01:05.547Z,7.03
2018-12-06T04:03:33.116Z,7.80
2018-12-06T04:06:00.663Z,7.80
2018-12-06T04:08:28.234Z,7.83
2018-12-06T04:10:55.780Z,8.17
2018-12-06T04:13:23.344Z,9.50
2018-12-06T04:15:50.888Z,8.73
2018-12-06T04:18:18.448Z,7.43
2018-12-06T04:20:45.995Z,8.57
2018-12-06T04:23:13.560Z,7.40
2018-12-06T04:25:41.101Z,8.57
2018-12-06T04:28:08.661Z,7.43
2018-12-06T04:30:36.211Z,10.47
2018-12-06T04:33:03.772Z,7.73
2018-12-06T04:35:33.220Z,9.07
2018-12-06T04:38:00.784Z,7.73
2018-12-06T04:40:28.334Z,7.90
2018-12-06T04:42:55.911Z,6.50
2018-12-06T04:45:23.452Z,8.00
2018-12-06T04:47:51.016Z,6.17
2018-12-06T04:50:18.562Z,4.07
2018-12-06T04:52:46.123Z,8.10
2018-12-06T04:55:13.660Z,6.97
2018-12-06T04:57:41.248Z,6.10
2018-12-06T05:00:08.791Z,6.87
2018-12-06T05:02:36.354Z,7.13
2018-12-06T05:05:04.684Z,6.67
2018-12-06T05:07:32.248Z,7.67
2018-12-06T05:09:59.794Z,7.33
2018-12-06T05:12:27.359Z,6.67
2018-12-06T05:14:54.900Z,9.10
2018-12-06T05:17:22.439Z,7.47
2018-12-06T05:19:50.003Z,8.23
2018-12-06T05:22:17.547Z,8.73
2018-12-06T05:24:45.112Z,10.10
2018-12-06T05:27:12.688Z,6.83
2018-12-06T05:29:40.291Z,7.07
2018-12-06T05:32:07.883Z,7.80
2018-12-06T05:34:35.453Z,6.73
2018-12-06T05:37:03.001Z,6.90
2018-12-06T05:39:30.564Z,10.63
2018-12-06T05:41:58.104Z,8.37
2018-12-06T05:44:25.672Z,8.30
2018-12-06T05:46:53.208Z,7.93
2018-12-06T05:49:20.773Z,8.97
2018-12-06T05:51:48.311Z,9.70
2018-12-06T05:54:15.959Z,8.90
2018-12-06T05:56:43.500Z,7.90
2018-12-06T05:59:11.055Z,5.63
2018-12-06T06:01:38.591Z,9.43
2018-12-06T06:04:06.160Z,7.33
2018-12-06T06:06:33.706Z,8.73
2018-12-06T06:09:01.265Z,7.67
2018-12-06T06:11:28.866Z,7.70
2018-12-06T06:13:56.488Z,16.40
2018-12-06T06:16:24.023Z,5.63
2018-12-06T06:18:51.585Z,13.10
2018-12-06T06:21:19.133Z,7.23
2018-12-06T06:23:46.703Z,5.80
2018-12-06T06:26:14.328Z,8.73
2018-12-06T06:28:42.064Z,7.33
2018-12-06T06:31:09.667Z,7.93
2018-12-06T06:33:37.226Z,6.13
2018-12-06T06:36:04.807Z,9.67
2018-12-06T06:38:32.371Z,7.27
2018-12-06T06:40:59.911Z,9.37
2018-12-06T06:43:27.517Z,6.60
2018-12-06T06:45:55.063Z,8.07
2018-12-06T06:48:22.667Z,8.23
2018-12-06T06:50:50.253Z,9.33
2018-12-06T06:53:17.825Z,6.87
2018-12-06T06:55:45.364Z,9.60
2018-12-06T06:58:12.935Z,7.17
2018-12-06T07:00:40.476Z,8.00
2018-12-06T07:03:08.016Z,7.53
2018-12-06T07:05:35.579Z,7.47
2018-12-06T07:08:03.119Z,7.03
2018-12-06T07:10:30.680Z,8.70
2018-12-06T07:12:58.260Z,7.73
2018-12-06T07:15:25.819Z,6.67
2018-12-06T07:17:53.365Z,8.30
2018-12-06T07:20:20.930Z,8.93
2018-12-06T07:22:48.476Z,6.97
2018-12-06T07:25:16.037Z,7.97
2018-12-06T07:27:43.584Z,7.07
2018-12-06T07:30:12.533Z,7.57
2018-12-06T07:32:40.397Z,8.07
2018-12-06T07:35:07.996Z,7.73
2018-12-06T07:37:35.548Z,6.53
2018-12-06T07:40:03.604Z,6.17
2018-12-06T07:42:31.146Z,7.27
2018-12-06T07:44:58.712Z,8.50
2018-12-06T07:47:26.261Z,8.87
2018-12-06T07:49:53.819Z,7.70
2018-12-06T07:52:21.400Z,7.20
2018-12-06T07:54:48.968Z,7.43
2018-12-06T07:57:16.515Z,7.13
2018-12-06T07:59:44.081Z,7.87
2018-12-06T08:02:11.620Z,8.57
2018-12-06T08:04:39.182Z,8.00
2018-12-06T08:07:06.727Z,4.90
2018-12-06T08:09:34.285Z,9.30
2018-12-06T08:12:01.836Z,7.73
2018-12-06T08:14:29.400Z,8.17
2018-12-06T08:16:56.945Z,7.57
2018-12-06T08:19:24.550Z,8.00
2018-12-06T08:21:52.094Z,9.57
2018-12-06T08:24:19.664Z,11.30
2018-12-06T08:26:47.209Z,8.67
2018-12-06T08:29:14.777Z,8.03
2018-12-06T08:31:42.321Z,8.13
2018-12-06T08:34:09.885Z,8.73
2018-12-06T08:36:37.432Z,7.50
2018-12-06T08:39:05.685Z,9.13
2018-12-06T08:41:33.224Z,8.97
2018-12-06T08:44:00.771Z,7.70
2018-12-06T08:46:28.337Z,7.33
2018-12-06T08:49:02.836Z,7.53
2018-12-06T08:51:25.459Z,9.17
2018-12-06T08:53:52.996Z,8.33
2018-12-06T08:56:20.597Z,8.00
2018-12-06T08:58:49.238Z,9.20
2018-12-06T09:01:16.930Z,8.27
2018-12-06T09:03:44.476Z,7.40
2018-12-06T09:06:12.046Z,8.07
2018-12-06T09:08:39.595Z,9.00
2018-12-06T09:11:07.206Z,7.10
2018-12-06T09:13:34.750Z,7.10
2018-12-06T09:16:02.352Z,9.53
2018-12-06T09:18:29.896Z,5.50
2018-12-06T09:20:57.456Z,9.13
2018-12-06T09:23:24.996Z,5.87
2018-12-06T09:25:52.566Z,6.47
2018-12-06T09:28:20.113Z,7.53
2018-12-06T09:30:47.676Z,6.83
2018-12-06T09:33:15.217Z,8.10
2018-12-06T09:35:42.777Z,6.60
2018-12-06T09:38:10.315Z,4.20
2018-12-06T09:40:37.968Z,6.33
2018-12-06T09:43:05.511Z,6.93
2018-12-06T09:45:33.075Z,6.03
2018-12-06T09:48:00.628Z,10.40
2018-12-06T09:50:28.227Z,7.97
2018-12-06T09:52:55.776Z,10.30
2018-12-06T09:55:23.336Z,8.03
2018-12-06T09:57:50.876Z,7.93
2018-12-06T10:00:18.436Z,6.93
2018-12-06T10:02:45.979Z,6.57
2018-12-06T10:05:13.589Z,5.53
2018-12-06T10:07:41.181Z,8.63
2018-12-06T10:10:08.836Z,10.07
2018-12-06T10:12:36.371Z,9.83
2018-12-06T10:15:04.320Z,11.07
2018-12-06T10:17:31.903Z,12.20
2018-12-06T10:19:59.461Z,8.50
2018-12-06T10:22:27.007Z,10.43
2018-12-06T10:24:54.578Z,11.93
2018-12-06T10:27:22.128Z,8.80
2018-12-06T10:29:49.677Z,11.83
2018-12-06T10:32:17.285Z,10.73
2018-12-06T10:34:45.477Z,12.50
2018-12-06T10:37:14.423Z,15.33
2018-12-06T10:39:41.967Z,15.00
2018-12-06T10:42:09.576Z,15.80
2018-12-06T10:44:37.131Z,16.73
2018-12-06T10:47:04.744Z,17.50
2018-12-06T10:49:32.297Z,16.33
2018-12-06T10:51:59.859Z,17.13
2018-12-06T10:54:27.407Z,20.33
2018-12-06T10:56:55.019Z,16.90
2018-12-06T10:59:22.563Z,20.23
2018-12-06T11:01:54.818Z,23.93
2018-12-06T11:04:24.317Z,20.70
2018-12-06T11:06:51.919Z,18.83
2018-12-06T11:09:19.461Z,18.37
2018-12-06T11:11:47.027Z,19.33
2018-12-06T11:14:14.611Z,14.77
2018-12-06T11:16:42.178Z,18.47
2018-12-06T11:19:09.724Z,16.53
2018-12-06T11:21:37.315Z,17.17
2018-12-06T11:24:04.909Z,17.30
2018-12-06T11:26:32.476Z,14.77
2018-12-06T11:29:00.024Z,15.97
2018-12-06T11:31:27.606Z,14.80
2018-12-06T11:33:55.247Z,14.73
2018-12-06T11:36:22.811Z,13.47
2018-12-06T11:38:50.359Z,15.83
2018-12-06T11:41:17.927Z,12.00
2018-12-06T11:43:45.489Z,12.30
2018-12-06T11:46:13.068Z,14.27
2018-12-06T11:48:40.616Z,14.50
2018-12-06T11:51:08.179Z,11.63
2018-12-06T11:53:35.736Z,12.57
2018-12-06T11:56:03.352Z,16.53
2018-12-06T11:58:30.900Z,15.03
2018-12-06T12:00:58.468Z,12.07
2018-12-06T12:03:26.022Z,11.47
2018-12-06T12:05:58.583Z,12.43
2018-12-06T12:08:23.171Z,10.63
2018-12-06T12:10:50.791Z,11.33
2018-12-06T12:13:18.335Z,9.53
2018-12-06T12:15:45.918Z,10.27
2018-12-06T12:18:13.580Z,10.97
2018-12-06T12:20:41.126Z,8.23
2018-12-06T12:23:08.688Z,8.53
2018-12-06T12:25:36.236Z,11.20
2018-12-06T12:28:03.844Z,10.77
2018-12-06T12:30:31.384Z,8.47
2018-12-06T12:32:58.944Z,9.27
2018-12-06T12:35:26.532Z,8.93
2018-12-06T12:37:54.101Z,10.27
2018-12-06T12:40:21.652Z,10.27
2018-12-06T12:42:49.215Z,8.50
2018-12-06T12:45:16.763Z,9.37
2018-12-06T12:47:44.324Z,10.87
2018-12-06T12:50:11.875Z,7.17
2018-12-06T12:52:39.440Z,10.20
2018-12-06T12:55:07.171Z,9.77
2018-12-06T12:57:34.736Z,9.03
2018-12-06T13:00:02.282Z,9.53
2018-12-06T13:02:29.847Z,8.57
2018-12-06T13:04:57.442Z,11.93
2018-12-06T13:07:25.010Z,9.70
2018-12-06T13:09:52.556Z,8.73
2018-12-06T13:12:20.198Z,11.00
2018-12-06T13:14:47.784Z,10.80
2018-12-06T13:17:15.350Z,9.10
2018-12-06T13:19:42.896Z,8.40
2018-12-06T13:22:10.500Z,9.03
2018-12-06T13:24:38.134Z,6.93
2018-12-06T13:27:05.695Z,7.57
2018-12-06T13:29:33.235Z,5.97
2018-12-06T13:32:00.841Z,6.73
2018-12-06T13:34:28.398Z,6.73
2018-12-06T13:36:55.957Z,4.43
2018-12-06T13:39:23.500Z,5.17
2018-12-06T13:41:51.073Z,4.70
2018-12-06T13:44:18.705Z,7.03
2018-12-06T13:46:46.311Z,5.70
2018-12-06T13:49:13.853Z,6.33
2018-12-06T13:51:41.415Z,4.90
2018-12-06T13:54:08.952Z,8.07
2018-12-06T13:56:36.514Z,5.53
2018-12-06T13:59:04.062Z,5.27
2018-12-06T14:01:31.658Z,5.00
2018-12-06T14:03:59.206Z,5.10
2018-12-06T14:06:26.745Z,4.33
2018-12-06T14:08:54.302Z,6.60
2018-12-06T14:11:21.844Z,5.03
2018-12-06T14:13:49.407Z,5.07
2018-12-06T14:16:16.988Z,6.67
2018-12-06T14:18:44.597Z,4.40
2018-12-06T14:21:12.145Z,5.20
2018-12-06T14:23:39.711Z,4.87
2018-12-06T14:26:07.254Z,6.13
2018-12-06T14:28:34.816Z,6.87
2018-12-06T14:31:02.408Z,5.23
2018-12-06T14:33:29.968Z,5.97
2018-12-06T14:35:57.516Z,6.03
2018-12-06T14:38:25.120Z,5.70
2018-12-06T14:40:52.681Z,4.50
2018-12-06T14:43:20.396Z,5.30
2018-12-06T14:45:48.184Z,4.83
2018-12-06T14:48:16.028Z,5.03
2018-12-06T14:50:43.569Z,5.27
2018-12-06T14:53:11.141Z,3.73
2018-12-06T14:55:38.679Z,6.13
2018-12-06T14:58:06.239Z,5.57
2018-12-06T15:00:33.788Z,4.93
2018-12-06T15:03:01.352Z,4.87
2018-12-06T15:05:28.985Z,6.50
2018-12-06T15:07:56.550Z,5.57
2018-12-06T15:10:24.095Z,5.57
2018-12-06T15:12:51.657Z,7.30
2018-12-06T15:15:19.200Z,6.43
2018-12-06T15:17:46.809Z,5.57
2018-12-06T15:20:14.356Z,6.17
2018-12-06T15:22:41.929Z,5.23
2018-12-06T15:25:09.475Z,5.57
2018-12-06T15:27:37.988Z,4.97
2018-12-06T15:30:06.852Z,8.30
2018-12-06T15:32:34.425Z,6.37
2018-12-06T15:35:01.973Z,5.60
2018-12-06T15:37:29.539Z,5.63
2018-12-06T15:39:57.081Z,8.57
2018-12-06T15:42:24.665Z,7.53
2018-12-06T15:44:52.253Z,6.67
2018-12-06T15:47:19.811Z,9.67
2018-12-06T15:49:47.351Z,6.90
2018-12-06T15:52:14.892Z,6.57
2018-12-06T15:54:42.500Z,6.97
2018-12-06T15:57:10.048Z,10.37
2018-12-06T15:59:37.608Z,8.07
2018-12-06T16:02:05.654Z,6.37
2018-12-06T16:04:33.212Z,8.60
2018-12-06T16:07:00.766Z,6.57
2018-12-06T16:09:28.324Z,7.67
2018-12-06T16:11:55.864Z,7.60
2018-12-06T16:14:23.429Z,5.60
2018-12-06T16:16:50.971Z,7.57
2018-12-06T16:19:18.542Z,6.57
2018-12-06T16:21:46.083Z,7.60
2018-12-06T16:24:13.643Z,9.27
2018-12-06T16:26:41.185Z,7.83
2018-12-06T16:29:08.988Z,5.87
2018-12-06T16:31:36.536Z,5.83
2018-12-06T16:34:04.149Z,4.87
2018-12-06T16:36:31.693Z,6.93
2018-12-06T16:38:59.257Z,4.90
2018-12-06T16:41:26.803Z,3.83
2018-12-06T16:43:54.364Z,6.37
2018-12-06T16:46:21.919Z,5.60
2018-12-06T16:48:49.528Z,5.40
2018-12-06T16:51:17.072Z,8.70
2018-12-06T16:53:44.636Z,7.03
2018-12-06T16:56:12.225Z,6.77
2018-12-06T16:58:39.792Z,6.70
2018-12-06T17:01:07.334Z,6.97
2018-12-06T17:03:34.894Z,6.20
2018-12-06T17:06:02.436Z,4.47
2018-12-06T17:08:29.995Z,5.30
2018-12-06T17:10:57.582Z,6.00
2018-12-06T17:13:25.153Z,5.40
2018-12-06T17:15:52.700Z,5.03
2018-12-06T17:18:20.260Z,5.10
2018-12-06T17:20:47.804Z,5.10
2018-12-06T17:23:15.365Z,4.47
2018-12-06T17:25:42.907Z,3.70
2018-12-06T17:28:10.512Z,5.07
2018-12-06T17:30:38.102Z,5.13
2018-12-06T17:33:05.683Z,4.70
2018-12-06T17:35:33.241Z,4.83
2018-12-06T17:38:00.780Z,4.80
2018-12-06T17:40:28.339Z,4.93
2018-12-06T17:42:55.879Z,5.10
2018-12-06T17:45:23.444Z,4.17
2018-12-06T17:47:50.997Z,4.90
2018-12-06T17:50:18.599Z,5.40
2018-12-06T17:52:46.140Z,4.97
2018-12-06T17:55:13.705Z,6.17
2018-12-06T17:57:41.269Z,5.90
2018-12-06T18:00:11.231Z,6.73
2018-12-06T18:02:38.826Z,7.57
2018-12-06T18:05:06.480Z,6.63
2018-12-06T18:07:34.026Z,5.70
2018-12-06T18:10:01.627Z,6.07
2018-12-06T18:12:29.256Z,6.87
2018-12-06T18:14:56.819Z,7.80
2018-12-06T18:17:24.369Z,8.03
2018-12-06T18:19:51.973Z,8.50
2018-12-06T18:22:19.511Z,7.87
2018-12-06T18:24:47.083Z,6.77
2018-12-06T18:27:14.681Z,8.20
2018-12-06T18:29:42.291Z,8.00
2018-12-06T18:32:09.834Z,8.33
2018-12-06T18:34:37.397Z,8.47
2018-12-06T18:37:04.938Z,9.23
2018-12-06T18:39:32.503Z,7.57
2018-12-06T18:42:00.043Z,8.53
2018-12-06T18:44:27.613Z,10.17
2018-12-06T18:46:55.496Z,8.70
2018-12-06T18:49:23.101Z,8.27
2018-12-06T18:51:50.644Z,9.43
2018-12-06T18:54:18.257Z,9.60
2018-12-06T18:56:45.810Z,10.30
2018-12-06T18:59:13.558Z,9.73
2018-12-06T19:01:41.160Z,11.07
2018-12-06T19:04:08.768Z,9.93
2018-12-06T19:06:40.207Z,9.53
2018-12-06T19:09:07.811Z,10.77
2018-12-06T19:11:35.359Z,11.63
2018-12-06T19:14:04.505Z,12.13
2018-12-06T19:16:32.200Z,10.90
2018-12-06T19:19:30.719Z,9.63
2018-12-06T19:21:58.343Z,9.90
2018-12-06T19:24:26.230Z,11.07
2018-12-06T19:26:53.840Z,11.47
2018-12-06T19:29:21.401Z,10.40
2018-12-06T19:31:48.972Z,10.00
2018-12-06T19:34:16.567Z,10.77
2018-12-06T19:36:44.107Z,12.17
2018-12-06T19:39:11.722Z,12.67
2018-12-06T19:41:39.292Z,13.03
2018-12-06T19:44:06.903Z,12.53
2018-12-06T19:46:34.455Z,10.87
2018-12-06T19:49:01.992Z,11.80
2018-12-06T19:51:29.555Z,11.70
2018-12-06T19:53:57.093Z,11.73
2018-12-06T19:56:24.652Z,12.77
2018-12-06T19:58:52.197Z,12.17
2018-12-06T20:01:19.792Z,13.10
2018-12-06T20:03:47.327Z,12.83
2018-12-06T20:06:14.890Z,12.50
2018-12-06T20:08:42.428Z,14.10
2018-12-06T20:11:10.076Z,12.83
2018-12-06T20:13:37.615Z,14.90
2018-12-06T20:16:05.218Z,12.23
2018-12-06T20:18:32.753Z,15.50
2018-12-06T20:21:00.306Z,13.43
2018-12-06T20:23:27.851Z,12.53
2018-12-06T20:25:55.412Z,15.00
2018-12-06T20:28:26.424Z,13.80
2018-12-06T20:30:52.580Z,14.93
2018-12-06T20:33:20.117Z,12.90
2018-12-06T20:35:47.685Z,12.73
2018-12-06T20:38:15.280Z,13.53
2018-12-06T20:40:42.845Z,16.07
2018-12-06T20:43:10.382Z,11.07
2018-12-06T20:45:37.953Z,15.33
2018-12-06T20:48:05.500Z,11.53
2018-12-06T20:50:33.100Z,14.87
2018-12-06T20:53:00.636Z,13.03
2018-12-06T20:55:28.205Z,12.53
2018-12-06T20:57:55.743Z,13.50
2018-12-06T21:00:23.340Z,12.43
2018-12-06T21:02:50.876Z,14.73
2018-12-06T21:05:18.436Z,12.80
2018-12-06T21:07:46.020Z,11.57
2018-12-06T21:10:13.580Z,13.27
2018-12-06T21:12:41.304Z,12.13
2018-12-06T21:15:08.953Z,12.37
2018-12-06T21:17:36.492Z,12.73
2018-12-06T21:20:05.040Z,13.13
2018-12-06T21:22:32.576Z,15.57
2018-12-06T21:25:00.263Z,13.53
2018-12-06T21:27:27.799Z,14.57
2018-12-06T21:29:55.404Z,14.90
2018-12-06T21:32:22.956Z,14.37
2018-12-06T21:34:50.491Z,15.87
2018-12-06T21:37:18.083Z,13.63
2018-12-06T21:39:45.623Z,14.23
2018-12-06T21:42:13.182Z,14.37
2018-12-06T21:44:40.724Z,15.80
2018-12-06T21:47:10.270Z,14.03
2018-12-06T21:49:37.813Z,13.37
2018-12-06T21:52:05.374Z,12.73
2018-12-06T21:54:32.916Z,13.10
2018-12-06T21:57:00.480Z,10.70
2018-12-06T21:59:28.015Z,13.63
2018-12-06T22:02:23.660Z,11.07
2018-12-06T22:04:51.296Z,11.70
2018-12-06T22:07:18.864Z,11.03
2018-12-06T22:09:46.409Z,10.23
2018-12-06T22:12:13.967Z,9.27
2018-12-06T22:14:41.657Z,9.90
2018-12-06T22:17:09.218Z,12.33
2018-12-06T22:19:36.754Z,10.33
2018-12-06T22:22:04.354Z,11.47
2018-12-06T22:24:31.895Z,11.20
2018-12-06T22:26:59.496Z,12.57
2018-12-06T22:29:27.081Z,12.13
2018-12-06T22:31:54.640Z,11.80
2018-12-06T22:34:22.172Z,8.70
2018-12-06T22:36:49.729Z,9.80
2018-12-06T22:39:17.275Z,11.87
2018-12-06T22:41:45.756Z,10.43
2018-12-06T22:44:13.287Z,9.13
2018-12-06T22:46:40.839Z,9.47
2018-12-06T22:49:08.423Z,9.13
2018-12-06T22:51:36.025Z,10.73
2018-12-06T22:54:03.648Z,9.33
2018-12-06T22:56:31.249Z,9.60
2018-12-06T22:58:58.790Z,8.20
2018-12-06T23:01:32.007Z,9.40
2018-12-06T23:03:59.988Z,8.63
2018-12-06T23:06:27.543Z,7.93
2018-12-06T23:08:56.675Z,10.97
2018-12-06T23:11:24.276Z,10.33
2018-12-06T23:13:51.812Z,10.83
2018-12-06T23:16:19.412Z,10.30
2018-12-06T23:18:46.943Z,9.17
2018-12-06T23:21:14.541Z,8.67
2018-12-06T23:23:42.133Z,10.80
2018-12-06T23:26:09.687Z,9.10
2018-12-06T23:28:37.224Z,9.67
2018-12-06T23:31:04.825Z,9.53
2018-12-06T23:33:32.367Z,8.33
2018-12-06T23:35:59.971Z,11.33
2018-12-06T23:38:27.511Z,10.97
2018-12-06T23:40:55.043Z,10.00
2018-12-06T23:43:22.643Z,10.13
2018-12-06T23:45:50.182Z,9.77
2018-12-06T23:48:17.750Z,9.63
2018-12-06T23:50:45.296Z,9.03
2018-12-06T23:53:12.866Z,11.27
2018-12-06T23:55:40.401Z,11.87
2018-12-06T23:58:07.996Z,9.00
